Time;durP1;ratioP1;P1;durP2;ratioP2;P2;SDS_P1;SDS_P2;PMS_P1;PMS_P2;Temp;Humidity;BMP_temperature;BMP_pressure;BME280_temperature;BME280_humidity;BME280_pressure;Samples;Min_cycle;Max_cycle;Signal;HPM_P1;HPM_P2
2023/05/14 00:01:09;;;;;;;3.57;3.00;;;10.60;99.90;;;;;;5018741;28;20248;-90
2023/05/14 00:03:36;;;;;;;3.90;3.37;;;10.60;1.00;;;;;;5018150;28;20253;-89
2023/05/14 00:06:02;;;;;;;3.90;3.43;;;10.60;99.90;;;;;;5019018;28;20545;-89
2023/05/14 00:08:27;;;;;;;3.73;3.43;;;10.40;63.40;;;;;;5016020;28;20167;-89
2023/05/14 00:10:53;;;;;;;4.30;3.37;;;10.30;1.00;;;;;;5016411;28;20178;-89
2023/05/14 00:13:19;;;;;;;4.10;3.50;;;10.20;1.00;;;;;;5017025;28;20201;-90
2023/05/14 00:15:44;;;;;;;3.80;3.40;;;10.30;1.00;;;;;;5016976;28;20232;-89
2023/05/14 00:18:11;;;;;;;3.50;3.20;;;10.30;1.00;;;;;;5017998;28;20557;-89
2023/05/14 00:20:36;;;;;;;3.40;3.10;;;10.40;1.00;;;;;;5014556;28;20559;-89
2023/05/14 00:23:02;;;;;;;3.33;3.00;;;10.50;99.90;;;;;;5018620;28;20680;-89
2023/05/14 00:25:28;;;;;;;3.60;3.30;;;10.60;1.00;;;;;;5018353;28;20182;-89
2023/05/14 00:27:53;;;;;;;4.03;3.43;;;10.70;1.00;;;;;;5019672;28;20177;-90
2023/05/14 00:30:19;;;;;;;4.10;3.40;;;10.70;1.00;;;;;;5018266;28;20183;-89
2023/05/14 00:32:44;;;;;;;4.07;3.33;;;10.60;99.90;;;;;;5017991;28;20226;-89
2023/05/14 00:35:10;;;;;;;3.53;3.23;;;10.60;99.90;;;;;;5018828;28;20661;-89
2023/05/14 00:37:36;;;;;;;4.10;3.30;;;10.60;6.60;;;;;;5017107;28;20171;-89
2023/05/14 00:40:02;;;;;;;3.40;3.10;;;10.50;99.90;;;;;;5016661;28;20185;-90
2023/05/14 00:42:28;;;;;;;3.97;3.10;;;10.60;1.00;;;;;;5015908;28;20187;-89
2023/05/14 00:44:53;;;;;;;3.90;3.60;;;10.60;99.90;;;;;;5016701;28;20175;-89
2023/05/14 00:47:19;;;;;;;3.73;3.43;;;10.50;99.90;;;;;;5016779;28;20233;-89
2023/05/14 00:49:45;;;;;;;3.93;3.33;;;10.60;1.00;;;;;;5016086;28;20175;-89
2023/05/14 00:52:11;;;;;;;4.20;3.43;;;10.50;1.00;;;;;;5013670;28;20306;-90
2023/05/14 00:54:37;;;;;;;4.00;3.30;;;10.60;99.90;;;;;;4998639;28;20176;-90
2023/05/14 00:57:05;;;;;;;3.90;3.60;;;10.60;99.90;;;;;;4997106;28;20203;-90
2023/05/14 00:59:30;;;;;;;3.43;3.13;;;10.60;99.90;;;;;;4998680;28;20180;-88
2023/05/14 01:01:56;;;;;;;4.23;3.40;;;10.30;1.00;;;;;;4997276;28;20199;-89
2023/05/14 01:04:22;;;;;;;4.17;3.07;;;10.00;1.00;;;;;;4996716;28;20184;-89
2023/05/14 01:07:36;;;;;;;3.73;3.30;;;10.00;1.00;;;;;;4996010;28;20176;-90
2023/05/14 01:10:13;;;;;;;5.00;3.50;;;10.00;1.00;;;;;;4995115;28;20191;-90
2023/05/14 01:12:43;;;;;;;3.53;3.23;;;10.00;1.00;;;;;;4996857;28;20195;-89
2023/05/14 01:15:15;;;;;;;3.43;3.13;;;10.00;1.00;;;;;;4996952;28;20212;-89
2023/05/14 01:17:47;;;;;;;4.07;3.53;;;10.10;1.00;;;;;;4997833;28;20157;-89
2023/05/14 01:20:13;;;;;;;3.73;3.43;;;10.20;1.00;;;;;;4996138;28;20187;-89
2023/05/14 01:22:39;;;;;;;4.93;3.83;;;10.20;1.00;;;;;;4996589;28;20195;-89
2023/05/14 01:25:05;;;;;;;3.77;3.37;;;10.30;99.90;;;;;;4997000;28;20167;-89
2023/05/14 01:27:34;;;;;;;3.97;3.67;;;10.20;1.00;;;;;;4996823;28;20179;-89
2023/05/14 01:30:11;;;;;;;4.73;4.33;;;10.00;1.00;;;;;;4996555;28;20175;-89
2023/05/14 01:32:39;;;;;;;4.43;4.03;;;9.90;99.90;;;;;;4998235;28;20289;-89
2023/05/14 01:35:06;;;;;;;4.43;4.03;;;10.00;99.90;;;;;;4998000;28;20192;-89
2023/05/14 01:37:33;;;;;;;4.17;3.87;;;10.00;99.90;;;;;;4997020;28;20175;-90
2023/05/14 01:39:59;;;;;;;4.33;3.93;;;10.10;99.90;;;;;;4998330;28;20255;-88
2023/05/14 01:42:26;;;;;;;3.80;3.40;;;10.00;1.00;;;;;;4997968;28;20199;-89
2023/05/14 01:44:55;;;;;;;4.20;3.80;;;10.00;8.60;;;;;;4998080;28;20173;-89
2023/05/14 01:47:20;;;;;;;3.70;3.40;;;9.90;1.00;;;;;;4997009;28;20199;-89
2023/05/14 01:49:46;;;;;;;4.27;3.23;;;9.90;1.00;;;;;;4997733;28;20183;-89
2023/05/14 01:52:12;;;;;;;4.20;3.80;;;9.60;99.90;;;;;;4995401;28;20212;-89
2023/05/14 01:54:38;;;;;;;4.00;3.67;;;9.60;1.00;;;;;;4996209;28;20614;-88
2023/05/14 01:57:03;;;;;;;4.30;3.90;;;9.50;1.00;;;;;;4995724;28;20214;-89
2023/05/14 01:59:29;;;;;;;4.20;3.90;;;9.50;1.00;;;;;;4994490;28;20249;-88
2023/05/14 02:01:55;;;;;;;4.47;4.10;;;9.60;1.00;;;;;;4993006;28;20245;-86
2023/05/14 02:04:20;;;;;;;3.90;3.53;;;9.60;1.00;;;;;;4993525;28;20180;-87
2023/05/14 02:06:46;;;;;;;4.40;4.00;;;9.70;1.00;;;;;;4993179;28;20234;-87
2023/05/14 02:09:11;;;;;;;5.40;3.83;;;9.60;1.00;;;;;;5002681;28;20194;-86
2023/05/14 02:11:37;;;;;;;4.17;3.77;;;9.60;1.00;;;;;;5011275;28;20186;-86
2023/05/14 02:14:02;;;;;;;4.10;3.70;;;9.70;99.90;;;;;;5011504;28;20201;-87
2023/05/14 02:16:28;;;;;;;5.13;3.53;;;9.80;99.90;;;;;;5011721;28;20199;-86
2023/05/14 02:18:54;;;;;;;4.60;4.20;;;9.80;1.00;;;;;;5011391;28;20266;-87
2023/05/14 02:21:19;;;;;;;4.63;3.90;;;9.70;99.90;;;;;;5011332;28;20205;-87
2023/05/14 02:23:47;;;;;;;4.07;3.77;;;9.70;99.90;;;;;;5011646;28;20195;-86
2023/05/14 02:26:12;;;;;;;3.83;3.40;;;9.60;99.90;;;;;;5012977;28;20183;-88
2023/05/14 02:28:38;;;;;;;3.90;3.43;;;9.50;1.00;;;;;;5012892;28;20596;-87
2023/05/14 02:31:03;;;;;;;3.70;3.40;;;9.60;93.40;;;;;;5012788;28;20175;-86
2023/05/14 02:33:29;;;;;;;4.23;3.27;;;9.50;1.00;;;;;;5016569;28;20198;-87
2023/05/14 02:35:55;;;;;;;4.10;3.70;;;9.50;99.90;;;;;;5015543;28;20289;-87
2023/05/14 02:38:21;;;;;;;3.17;2.97;;;9.40;1.00;;;;;;5016852;28;20207;-86
2023/05/14 02:40:46;;;;;;;3.57;3.23;;;9.30;99.90;;;;;;5015157;28;20178;-86
2023/05/14 02:43:12;;;;;;;3.87;3.57;;;9.10;1.00;;;;;;5015598;28;20203;-86
2023/05/14 02:45:38;;;;;;;4.00;3.60;;;9.10;1.00;;;;;;5015426;28;20179;-86
2023/05/14 02:48:03;;;;;;;5.00;3.50;;;9.10;1.00;;;;;;5015480;28;20219;-86
2023/05/14 02:50:29;;;;;;;5.10;3.60;;;9.20;1.00;;;;;;5016065;28;20189;-86
2023/05/14 02:52:54;;;;;;;3.97;3.57;;;9.30;1.00;;;;;;5014199;28;20222;-87
2023/05/14 02:55:20;;;;;;;4.20;3.37;;;9.40;99.90;;;;;;5015345;28;20206;-87
2023/05/14 02:57:46;;;;;;;4.10;3.60;;;9.40;99.90;;;;;;5015144;28;20182;-86
2023/05/14 03:00:12;;;;;;;4.07;3.67;;;9.40;99.90;;;;;;5015913;28;20266;-87
2023/05/14 03:02:37;;;;;;;3.80;3.50;;;9.40;99.90;;;;;;5017211;28;20194;-86
2023/05/14 03:05:03;;;;;;;4.23;3.83;;;9.40;99.90;;;;;;5016541;28;20667;-87
2023/05/14 03:07:29;;;;;;;3.87;3.47;;;9.50;99.90;;;;;;5014732;28;20171;-86
2023/05/14 03:09:55;;;;;;;4.27;3.87;;;9.50;4.20;;;;;;5015620;28;20606;-86
2023/05/14 03:12:21;;;;;;;4.10;3.80;;;9.50;99.90;;;;;;5016043;28;20194;-86
2023/05/14 03:14:46;;;;;;;3.93;3.60;;;9.50;99.90;;;;;;5016100;28;20186;-87
2023/05/14 03:17:12;;;;;;;4.10;3.70;;;9.50;99.90;;;;;;5014393;28;20217;-85
2023/05/14 03:19:37;;;;;;;4.93;3.70;;;9.50;99.90;;;;;;5015282;28;20740;-86
2023/05/14 03:22:03;;;;;;;3.70;3.40;;;9.50;99.90;;;;;;5014618;28;20578;-87
2023/05/14 03:24:29;;;;;;;3.57;3.27;;;9.50;56.80;;;;;;5014340;28;20182;-87
2023/05/14 03:26:54;;;;;;;3.73;3.43;;;9.40;99.90;;;;;;5014715;28;20183;-86
2023/05/14 03:29:20;;;;;;;4.10;3.70;;;9.40;1.00;;;;;;5014589;28;20181;-86
2023/05/14 03:31:45;;;;;;;4.57;3.70;;;9.30;1.00;;;;;;5013928;28;20290;-86
2023/05/14 03:34:11;;;;;;;4.20;3.80;;;9.20;1.00;;;;;;5014285;28;20175;-87
2023/05/14 03:36:38;;;;;;;3.83;3.47;;;9.10;1.00;;;;;;5015585;28;20250;-86
2023/05/14 03:39:05;;;;;;;4.23;3.80;;;9.10;1.00;;;;;;5014256;28;20267;-87
2023/05/14 03:41:31;;;;;;;4.40;4.00;;;9.10;36.20;;;;;;5015066;28;20183;-86
2023/05/14 03:43:57;;;;;;;4.70;3.83;;;9.10;99.90;;;;;;5014122;28;20236;-86
2023/05/14 03:46:23;;;;;;;4.30;3.90;;;9.30;99.90;;;;;;5014281;28;20175;-87
2023/05/14 03:48:48;;;;;;;4.43;4.10;;;9.30;90.90;;;;;;5015478;28;20229;-87
2023/05/14 03:51:14;;;;;;;5.57;4.10;;;9.50;1.80;;;;;;5014902;28;20175;-87
2023/05/14 03:53:40;;;;;;;4.67;4.10;;;9.50;1.00;;;;;;5014395;28;20237;-87
2023/05/14 03:56:05;;;;;;;4.30;3.90;;;9.60;1.00;;;;;;5013677;28;20302;-86
2023/05/14 03:58:31;;;;;;;4.03;3.63;;;9.60;1.00;;;;;;5015082;28;20270;-86
2023/05/14 04:00:57;;;;;;;3.90;3.57;;;9.50;1.00;;;;;;5013552;28;20178;-86
2023/05/14 04:03:22;;;;;;;4.50;4.10;;;9.50;1.00;;;;;;5013817;28;20190;-87
2023/05/14 04:05:50;;;;;;;5.33;3.93;;;9.30;10.00;;;;;;5015202;28;20576;-86
2023/05/14 04:08:15;;;;;;;4.73;3.60;;;9.30;78.90;;;;;;5015101;28;20197;-86
2023/05/14 04:10:42;;;;;;;5.33;4.50;;;9.30;99.90;;;;;;5013338;28;20540;-87
2023/05/14 04:13:07;;;;;;;4.87;4.37;;;9.30;99.90;;;;;;5014981;28;20191;-86
2023/05/14 04:15:34;;;;;;;5.33;4.83;;;9.30;99.90;;;;;;5013617;28;20202;-86
2023/05/14 04:18:00;;;;;;;5.17;4.60;;;9.30;99.90;;;;;;5013428;28;20222;-87
2023/05/14 04:20:26;;;;;;;5.00;4.50;;;9.40;99.90;;;;;;5013247;28;20167;-87
2023/05/14 04:22:53;;;;;;;5.57;4.57;;;9.60;99.90;;;;;;5013530;28;20255;-86
2023/05/14 04:25:18;;;;;;;4.90;4.40;;;9.70;99.90;;;;;;5013519;28;20171;-86
2023/05/14 04:27:44;;;;;;;5.10;4.60;;;9.70;99.90;;;;;;5013290;28;20174;-86
2023/05/14 04:30:10;;;;;;;5.13;4.63;;;9.70;99.90;;;;;;5012618;28;20266;-86
2023/05/14 04:32:36;;;;;;;5.13;4.10;;;9.60;99.90;;;;;;5013136;28;20199;-87
2023/05/14 04:35:03;;;;;;;4.90;4.40;;;9.70;99.90;;;;;;5013286;28;20175;-86
2023/05/14 04:37:29;;;;;;;5.47;4.70;;;9.80;99.90;;;;;;5013370;28;20191;-86
2023/05/14 04:39:55;;;;;;;5.50;4.93;;;9.90;96.10;;;;;;5013972;28;20180;-86
2023/05/14 04:42:21;;;;;;;5.27;4.77;;;9.80;76.00;;;;;;5013153;28;20222;-86
2023/05/14 04:44:46;;;;;;;5.27;4.80;;;9.90;99.90;;;;;;5012919;28;20171;-86
2023/05/14 04:47:12;;;;;;;5.50;5.00;;;9.90;99.90;;;;;;5014304;28;20179;-86
2023/05/14 04:49:37;;;;;;;4.90;4.50;;;10.00;99.90;;;;;;5012324;28;20170;-85
2023/05/14 04:52:03;;;;;;;5.03;4.63;;;10.00;99.90;;;;;;5011807;28;20207;-86
2023/05/14 04:54:29;;;;;;;5.40;4.53;;;10.00;99.90;;;;;;5013324;28;20228;-86
2023/05/14 04:56:54;;;;;;;6.10;4.90;;;10.00;99.90;;;;;;5012634;28;20851;-86
2023/05/14 04:59:20;;;;;;;5.37;4.87;;;10.00;99.90;;;;;;5013977;28;20646;-86
2023/05/14 05:01:46;;;;;;;5.63;5.13;;;10.00;99.90;;;;;;5012380;28;20191;-86
2023/05/14 05:04:12;;;;;;;5.90;5.37;;;9.90;99.90;;;;;;5012606;28;20186;-87
2023/05/14 05:06:38;;;;;;;5.40;4.90;;;10.00;99.90;;;;;;5014044;28;20179;-86
2023/05/14 05:09:03;;;;;;;5.63;5.13;;;10.00;99.90;;;;;;5012595;28;20175;-86
2023/05/14 05:11:29;;;;;;;5.80;5.30;;;10.00;99.90;;;;;;5012257;28;20185;-86
2023/05/14 05:13:54;;;;;;;6.40;5.80;;;10.00;99.90;;;;;;5012643;28;20272;-86
2023/05/14 05:16:20;;;;;;;5.20;4.80;;;10.00;99.90;;;;;;5013752;28;20672;-86
2023/05/14 05:18:45;;;;;;;5.60;5.10;;;10.00;99.90;;;;;;5013897;28;20233;-86
2023/05/14 05:21:11;;;;;;;6.77;4.70;;;10.00;99.90;;;;;;5013229;28;20171;-87
2023/05/14 05:23:37;;;;;;;5.50;5.00;;;10.00;99.90;;;;;;5012517;28;20203;-86
2023/05/14 05:26:02;;;;;;;5.50;5.00;;;10.00;99.90;;;;;;5013684;28;20610;-86
2023/05/14 05:28:28;;;;;;;5.90;4.97;;;10.00;99.90;;;;;;5012491;28;20229;-86
2023/05/14 05:30:53;;;;;;;5.60;5.10;;;10.00;99.90;;;;;;5011614;28;20190;-87
2023/05/14 05:33:19;;;;;;;5.77;5.07;;;10.00;99.90;;;;;;5012184;28;20201;-86
2023/05/14 05:35:45;;;;;;;5.30;4.90;;;10.00;99.90;;;;;;5012235;28;20218;-87
2023/05/14 05:38:10;;;;;;;5.60;5.10;;;10.10;99.90;;;;;;5013175;28;20601;-87
2023/05/14 05:40:36;;;;;;;6.67;5.40;;;10.20;99.90;;;;;;5011469;28;20198;-88
2023/05/14 05:43:01;;;;;;;5.90;5.20;;;10.30;99.90;;;;;;5012207;28;20192;-86
2023/05/14 05:45:27;;;;;;;6.47;5.93;;;10.30;99.90;;;;;;5013262;28;20183;-86
2023/05/14 05:47:52;;;;;;;7.73;6.97;;;10.30;99.90;;;;;;5013381;28;20186;-86
2023/05/14 05:50:18;;;;;;;8.13;6.73;;;10.50;99.90;;;;;;5013135;28;20220;-77
2023/05/14 05:52:44;;;;;;;7.30;6.60;;;10.70;99.90;;;;;;5079172;22;20561;-80
2023/05/14 05:55:12;;;;;;;6.90;6.30;;;10.90;99.90;;;;;;5056441;28;20176;-83
2023/05/14 05:57:38;;;;;;;7.60;6.90;;;11.10;99.90;;;;;;5057424;28;20169;-83
2023/05/14 06:00:14;;;;;;;7.83;6.57;;;11.20;99.90;;;;;;5057745;28;20169;-85
2023/05/14 06:02:42;;;;;;;7.20;6.50;;;11.40;99.90;;;;;;5056839;28;20189;-80
2023/05/14 06:05:09;;;;;;;7.93;6.83;;;11.50;99.90;;;;;;5058836;28;20636;-83
2023/05/14 06:07:35;;;;;;;8.47;7.13;;;11.60;99.90;;;;;;5038215;28;20181;-81
2023/05/14 06:10:00;;;;;;;8.30;7.50;;;11.70;99.90;;;;;;5036362;28;20274;-79
2023/05/14 06:12:26;;;;;;;8.40;7.30;;;11.70;99.90;;;;;;5036220;28;20194;-82
2023/05/14 06:14:54;;;;;;;7.97;7.17;;;11.80;99.90;;;;;;5038093;28;20170;-81
2023/05/14 06:17:20;;;;;;;8.10;7.30;;;11.80;99.90;;;;;;5039866;28;20265;-83
2023/05/14 06:19:45;;;;;;;8.73;7.50;;;11.80;99.90;;;;;;5055130;28;20194;-81
2023/05/14 06:22:11;;;;;;;8.90;8.00;;;11.80;99.90;;;;;;5057144;28;20646;-78
2023/05/14 06:24:37;;;;;;;8.30;7.50;;;11.80;99.90;;;;;;5057409;28;20172;-80
2023/05/14 06:27:03;;;;;;;8.50;7.70;;;11.90;99.90;;;;;;5059778;28;20197;-80
2023/05/14 06:29:28;;;;;;;8.80;7.90;;;12.00;99.90;;;;;;5059067;28;20182;-80
2023/05/14 06:32:01;;;;;;;8.30;7.50;;;12.00;99.90;;;;;;5059718;28;20181;-78
2023/05/14 06:34:26;;;;;;;9.17;7.63;;;12.10;99.90;;;;;;5058107;28;20174;-80
2023/05/14 06:36:52;;;;;;;7.87;7.07;;;12.20;99.90;;;;;;5060394;28;20632;-81
2023/05/14 06:39:17;;;;;;;8.43;7.63;;;12.30;99.90;;;;;;5059029;28;20170;-80
2023/05/14 06:41:43;;;;;;;8.37;7.43;;;12.30;99.90;;;;;;5056499;28;20604;-81
2023/05/14 06:44:09;;;;;;;7.60;6.90;;;12.40;99.90;;;;;;5057683;28;20288;-82
2023/05/14 06:46:35;;;;;;;7.70;6.90;;;12.50;99.90;;;;;;5059451;28;20174;-80
2023/05/14 06:49:07;;;;;;;7.53;6.83;;;12.60;99.90;;;;;;5059849;28;20185;-80
2023/05/14 06:51:32;;;;;;;7.13;6.50;;;12.70;99.90;;;;;;5055925;28;20241;-80
2023/05/14 06:53:58;;;;;;;7.60;6.37;;;12.80;99.90;;;;;;5058411;28;20248;-80
2023/05/14 06:56:23;;;;;;;7.20;6.27;;;12.90;99.90;;;;;;5060212;28;20738;-80
2023/05/14 06:58:49;;;;;;;7.60;6.47;;;12.80;99.90;;;;;;5058503;28;20598;-82
2023/05/14 07:01:15;;;;;;;7.00;6.30;;;12.80;99.90;;;;;;5057869;28;20202;-80
2023/05/14 07:03:41;;;;;;;7.07;6.43;;;12.90;99.90;;;;;;5060568;28;20241;-81
2023/05/14 07:06:07;;;;;;;6.40;5.80;;;13.00;99.90;;;;;;5059025;28;20185;-80
2023/05/14 07:08:32;;;;;;;7.17;6.47;;;13.10;99.90;;;;;;5060945;28;20173;-80
2023/05/14 07:10:58;;;;;;;5.43;4.90;;;13.30;1.00;;;;;;5060443;28;20177;-82
2023/05/14 07:13:27;;;;;;;4.53;4.13;;;13.50;1.00;;;;;;5060837;28;20189;-80
2023/05/14 07:15:54;;;;;;;4.50;4.10;;;13.60;1.00;;;;;;5059027;28;20194;-81
2023/05/14 07:18:20;;;;;;;4.27;3.70;;;13.60;99.90;;;;;;5062167;28;20693;-80
2023/05/14 07:20:46;;;;;;;3.13;2.93;;;13.80;99.90;;;;;;5061331;28;20208;-80
2023/05/14 07:23:11;;;;;;;2.70;2.50;;;14.00;1.00;;;;;;5057196;28;20198;-81
2023/05/14 07:25:37;;;;;;;3.10;2.80;;;14.40;99.90;;;;;;5066270;28;20181;-81
2023/05/14 07:28:03;;;;;;;4.27;3.00;;;14.60;99.90;;;;;;5065980;28;20270;-81
2023/05/14 07:30:28;;;;;;;2.83;2.63;;;14.80;99.90;;;;;;5064303;28;20189;-81
2023/05/14 07:32:54;;;;;;;2.77;2.50;;;15.10;1.00;;;;;;5064493;28;20658;-80
2023/05/14 07:35:20;;;;;;;2.73;2.50;;;15.30;2.20;;;;;;5065439;28;20393;-82
2023/05/14 07:37:45;;;;;;;2.63;2.43;;;15.50;1.00;;;;;;5065657;28;20174;-81
2023/05/14 07:40:11;;;;;;;3.20;2.90;;;15.80;1.00;;;;;;5063781;28;20182;-81
2023/05/14 07:42:36;;;;;;;3.30;2.83;;;15.90;99.90;;;;;;5064275;28;20205;-82
2023/05/14 07:45:03;;;;;;;2.87;2.47;;;16.00;99.90;;;;;;5066315;28;20178;-82
2023/05/14 07:47:28;;;;;;;2.93;2.73;;;16.20;77.90;;;;;;5065039;28;20180;-81
2023/05/14 07:49:55;;;;;;;2.70;2.50;;;16.30;1.00;;;;;;5065237;28;20205;-81
2023/05/14 07:52:21;;;;;;;2.80;2.50;;;16.40;1.00;;;;;;5064919;28;20251;-81
2023/05/14 07:54:47;;;;;;;3.70;2.67;;;16.60;1.00;;;;;;5066788;28;20201;-79
2023/05/14 07:57:12;;;;;;;2.80;2.60;;;16.70;1.00;;;;;;5067223;28;20205;-80
2023/05/14 07:59:38;;;;;;;2.77;2.57;;;16.80;1.00;;;;;;5067336;28;20169;-80
2023/05/14 08:02:04;;;;;;;3.07;2.50;;;16.60;1.00;;;;;;5065033;28;20184;-80
2023/05/14 08:04:29;;;;;;;2.53;2.33;;;16.60;23.00;;;;;;5067150;28;20197;-80
2023/05/14 08:06:56;;;;;;;2.70;2.50;;;16.70;1.00;;;;;;5061734;28;20169;-80
2023/05/14 08:09:22;;;;;;;2.63;2.43;;;16.60;1.00;;;;;;5059990;28;20196;-80
2023/05/14 08:11:48;;;;;;;2.50;2.30;;;16.80;1.00;;;;;;5058373;28;20559;-80
2023/05/14 08:14:13;;;;;;;2.87;2.60;;;16.70;99.90;;;;;;5060262;28;20193;-80
2023/05/14 08:16:39;;;;;;;3.47;2.53;;;16.90;99.90;;;;;;5061484;28;20193;-81
2023/05/14 08:19:05;;;;;;;3.30;2.60;;;17.10;1.00;;;;;;5059896;28;20201;-80
2023/05/14 08:21:31;;;;;;;2.70;2.47;;;17.30;99.90;;;;;;5059738;28;20174;-80
2023/05/14 08:23:57;;;;;;;2.60;2.40;;;17.30;99.90;;;;;;5062291;28;20185;-82
2023/05/14 08:26:22;;;;;;;2.73;2.40;;;17.60;99.90;;;;;;5061461;28;20170;-80
2023/05/14 08:28:48;;;;;;;2.90;2.33;;;17.90;1.00;;;;;;5058858;28;20178;-78
2023/05/14 08:31:13;;;;;;;2.57;2.37;;;18.10;99.90;;;;;;5061160;28;20188;-80
2023/05/14 08:33:40;;;;;;;2.50;2.30;;;18.20;1.00;;;;;;5061160;28;20193;-80
2023/05/14 08:36:06;;;;;;;2.47;2.27;;;18.30;99.90;;;;;;5060916;28;20188;-81
2023/05/14 08:38:32;;;;;;;2.57;2.37;;;18.50;1.00;;;;;;5059959;28;20178;-80
2023/05/14 08:40:59;;;;;;;4.10;2.50;;;18.60;1.00;;;;;;5059299;28;20169;-82
2023/05/14 08:43:51;;;;;;;2.60;2.40;;;18.60;1.00;;;;;;5059902;28;20675;-80
2023/05/14 08:46:19;;;;;;;2.40;2.20;;;18.70;1.00;;;;;;5044778;28;20189;-81
2023/05/14 08:48:50;;;;;;;2.83;2.17;;;18.70;1.00;;;;;;5061182;28;20663;-81
2023/05/14 08:51:15;;;;;;;2.60;2.40;;;18.50;1.00;;;;;;5058980;28;20220;-81
2023/05/14 08:53:42;;;;;;;4.73;2.40;;;18.40;1.00;;;;;;5059827;28;20221;-81
2023/05/14 08:56:08;;;;;;;2.90;2.50;;;18.70;99.90;;;;;;5058397;28;20255;-81
2023/05/14 08:58:33;;;;;;;2.70;2.43;;;19.00;1.00;;;;;;5059794;28;20588;-81
2023/05/14 09:00:59;;;;;;;2.70;2.50;;;19.00;1.00;;;;;;5060708;28;20553;-81
2023/05/14 09:03:25;;;;;;;2.57;2.37;;;19.20;1.00;;;;;;5060153;28;20193;-81
2023/05/14 09:05:51;;;;;;;2.50;2.30;;;19.20;99.90;;;;;;5061810;28;20202;-82
2023/05/14 09:08:16;;;;;;;3.23;2.60;;;19.30;1.00;;;;;;5061425;28;20189;-81
2023/05/14 09:10:42;;;;;;;4.53;2.60;;;19.30;99.90;;;;;;5060364;28;20320;-81
2023/05/14 09:13:09;;;;;;;2.60;2.40;;;19.50;1.00;;;;;;5062190;28;20189;-81
2023/05/14 09:15:37;;;;;;;2.47;2.20;;;19.40;1.00;;;;;;5060554;28;20284;-81
2023/05/14 09:18:06;;;;;;;2.77;2.50;;;19.30;1.00;;;;;;5061882;28;20174;-81
2023/05/14 09:20:31;;;;;;;3.00;2.70;;;19.30;1.00;;;;;;5061228;28;20190;-80
2023/05/14 09:22:58;;;;;;;2.47;2.27;;;19.10;1.00;;;;;;5060732;28;20574;-81
2023/05/14 09:25:31;;;;;;;3.00;2.20;;;18.90;1.00;;;;;;5062716;28;20632;-81
2023/05/14 09:27:57;;;;;;;2.80;2.50;;;19.00;1.00;;;;;;5062269;28;20166;-81
2023/05/14 09:30:24;;;;;;;2.40;2.20;;;19.20;99.90;;;;;;5059234;28;20240;-80
2023/05/14 09:32:53;;;;;;;2.40;2.20;;;19.20;1.00;;;;;;5061194;28;20193;-81
2023/05/14 09:35:19;;;;;;;2.10;1.90;;;19.20;1.00;;;;;;5060853;28;20181;-81
2023/05/14 09:37:54;;;;;;;2.30;2.10;;;19.30;99.90;;;;;;5062393;28;20173;-80
2023/05/14 09:40:22;;;;;;;2.40;2.20;;;19.20;99.90;;;;;;5061642;28;20177;-81
2023/05/14 09:42:48;;;;;;;3.00;2.00;;;19.10;99.90;;;;;;5060506;28;20217;-81
2023/05/14 09:45:13;;;;;;;2.53;2.33;;;19.00;99.90;;;;;;5062332;28;20579;-81
2023/05/14 09:47:39;;;;;;;2.33;2.13;;;19.30;99.90;;;;;;5060258;28;20220;-82
2023/05/14 09:50:06;;;;;;;2.10;2.00;;;19.90;99.90;;;;;;5059914;28;20174;-80
2023/05/14 09:52:32;;;;;;;2.47;2.17;;;20.30;99.90;;;;;;5058839;28;20210;-80
2023/05/14 09:54:57;;;;;;;2.97;2.17;;;20.30;99.90;;;;;;5062703;28;20196;-81
2023/05/14 09:57:23;;;;;;;2.30;2.10;;;20.20;99.90;;;;;;5057078;28;20197;-81
2023/05/14 09:59:49;;;;;;;2.40;2.20;;;20.00;99.90;;;;;;5062010;28;20234;-81
2023/05/14 10:02:22;;;;;;;2.20;2.00;;;19.60;99.90;;;;;;5060901;28;20571;-80
2023/05/14 10:04:50;;;;;;;2.00;1.80;;;19.40;99.90;;;;;;5060203;28;20170;-84
2023/05/14 10:07:22;;;;;;;2.50;2.30;;;20.00;99.90;;;;;;5059387;28;20205;-83
2023/05/14 10:09:47;;;;;;;2.92;2.10;;;19.90;99.90;;;;;;5061082;28;20264;-81
2023/05/14 10:12:18;;;;;;;2.97;2.08;;;20.00;64.70;;;;;;5059636;28;20209;-82
2023/05/14 10:14:52;;;;;;;2.00;1.80;;;20.00;1.00;;;;;;5060177;28;20322;-80
2023/05/14 10:17:20;;;;;;;1.75;1.63;;;20.50;99.90;;;;;;5058668;28;20568;-81
2023/05/14 10:19:51;;;;;;;1.80;1.70;;;21.10;1.00;;;;;;5057726;28;20169;-79
2023/05/14 10:22:21;;;;;;;2.25;2.00;;;20.90;1.00;;;;;;5059811;28;20190;-80
2023/05/14 10:24:51;;;;;;;2.08;1.88;;;21.10;91.40;;;;;;5061858;28;20176;-80
2023/05/14 10:27:18;;;;;;;2.47;2.28;;;20.90;1.00;;;;;;5059760;28;20546;-80
2023/05/14 10:29:53;;;;;;;2.35;2.10;;;20.40;1.00;;;;;;5059191;28;20173;-80
2023/05/14 10:32:24;;;;;;;1.98;1.85;;;20.10;1.00;;;;;;5060361;28;20221;-80
2023/05/14 10:34:50;;;;;;;2.33;2.13;;;19.70;82.70;;;;;;5061205;28;20174;-80
2023/05/14 10:37:19;;;;;;;2.15;1.98;;;19.40;85.10;;;;;;5061141;28;20204;-81
2023/05/14 10:39:52;;;;;;;2.20;2.00;;;19.40;94.80;;;;;;5063047;28;20209;-81
2023/05/14 10:42:19;;;;;;;2.10;1.90;;;19.40;99.90;;;;;;5064137;28;20193;-81
2023/05/14 10:44:57;;;;;;;2.00;1.90;;;19.70;99.90;;;;;;5064025;28;20176;-82
2023/05/14 10:47:30;;;;;;;2.13;1.92;;;20.30;20.10;;;;;;5062758;28;20260;-84
2023/05/14 10:49:58;;;;;;;2.42;1.60;;;20.60;1.00;;;;;;5061786;28;20268;-81
2023/05/14 10:52:25;;;;;;;2.03;1.90;;;20.40;1.00;;;;;;5060567;28;20209;-82
2023/05/14 10:54:51;;;;;;;1.92;1.80;;;20.00;1.00;;;;;;5066672;28;20169;-81
2023/05/14 10:57:19;;;;;;;1.90;1.80;;;19.70;1.00;;;;;;5068208;28;20212;-82
2023/05/14 10:59:47;;;;;;;1.95;1.75;;;19.40;1.00;;;;;;5065299;28;20177;-81
2023/05/14 11:02:20;;;;;;;2.42;1.90;;;19.20;90.70;;;;;;5055192;28;20253;-82
2023/05/14 11:04:57;;;;;;;2.17;2.00;;;19.30;99.90;;;;;;5065069;28;20233;-82
2023/05/14 11:07:26;;;;;;;2.22;2.03;;;19.30;99.90;;;;;;5066528;28;20181;-82
2023/05/14 11:09:52;;;;;;;2.75;1.92;;;19.30;99.90;;;;;;5066258;28;20179;-82
2023/05/14 11:12:18;;;;;;;2.17;1.98;;;19.40;99.90;;;;;;5066625;28;20194;-83
2023/05/14 11:14:45;;;;;;;2.50;1.90;;;19.30;1.00;;;;;;5062288;28;20170;-81
2023/05/14 11:17:11;;;;;;;2.25;2.05;;;19.30;99.90;;;;;;5060996;28;20683;-81
2023/05/14 11:19:36;;;;;;;2.15;1.95;;;19.10;1.00;;;;;;5061509;28;20231;-80
2023/05/14 11:22:02;;;;;;;2.22;2.03;;;19.60;46.40;;;;;;5062862;28;20178;-81
2023/05/14 11:24:28;;;;;;;2.97;2.00;;;19.60;6.60;;;;;;5062887;28;20185;-81
2023/05/14 11:26:55;;;;;;;2.30;1.80;;;19.70;1.00;;;;;;5063789;28;20197;-81
2023/05/14 11:29:20;;;;;;;3.03;2.00;;;20.10;1.00;;;;;;5062931;28;20242;-81
2023/05/14 11:31:46;;;;;;;2.00;1.80;;;20.20;1.00;;;;;;5060881;28;20205;-81
2023/05/14 11:34:12;;;;;;;2.20;2.00;;;20.00;1.00;;;;;;5063178;28;20194;-81
2023/05/14 11:36:38;;;;;;;1.95;1.80;;;20.40;1.00;;;;;;5061371;28;20225;-81
2023/05/14 11:39:03;;;;;;;1.92;1.80;;;20.50;1.00;;;;;;5061686;28;20180;-81
2023/05/14 11:41:30;;;;;;;1.80;1.70;;;21.10;1.00;;;;;;5063016;28;20174;-81
2023/05/14 11:43:56;;;;;;;2.20;2.00;;;21.50;1.00;;;;;;5061870;28;20190;-81
2023/05/14 11:46:23;;;;;;;2.78;1.70;;;21.90;1.00;;;;;;5062403;28;20178;-82
2023/05/14 11:48:48;;;;;;;2.60;1.92;;;21.60;1.00;;;;;;5062921;28;20178;-81
2023/05/14 11:51:14;;;;;;;2.10;1.90;;;21.20;1.00;;;;;;5061863;28;20225;-81
2023/05/14 11:53:40;;;;;;;2.17;2.00;;;20.80;1.00;;;;;;5068264;23;20262;-83
2023/05/14 11:56:05;;;;;;;2.35;2.10;;;20.40;1.00;;;;;;5050144;28;20236;-83
2023/05/14 11:58:32;;;;;;;2.80;2.33;;;19.90;99.90;;;;;;5050257;28;20192;-83
2023/05/14 12:00:58;;;;;;;2.10;1.80;;;19.40;99.90;;;;;;5032934;28;20232;-83
2023/05/14 12:03:25;;;;;;;2.58;1.90;;;19.10;99.90;;;;;;5033489;28;20190;-83
2023/05/14 12:06:05;;;;;;;2.10;1.80;;;18.90;99.90;;;;;;5034630;28;20257;-83
2023/05/14 12:08:31;;;;;;;2.27;1.90;;;18.70;99.90;;;;;;5034610;28;20174;-83
2023/05/14 12:10:58;;;;;;;2.37;2.00;;;18.40;1.00;;;;;;5032800;28;20179;-83
2023/05/14 12:13:28;;;;;;;2.77;1.80;;;18.20;1.00;;;;;;5034266;28;20195;-83
2023/05/14 12:15:59;;;;;;;1.77;1.67;;;17.90;1.00;;;;;;5034224;28;20200;-84
2023/05/14 12:18:27;;;;;;;3.57;1.70;;;17.70;1.00;;;;;;5034392;28;20171;-83
2023/05/14 12:20:53;;;;;;;1.60;1.50;;;17.70;24.60;;;;;;5032588;28;20174;-85
2023/05/14 12:23:44;;;;;;;2.07;1.50;;;17.60;1.00;;;;;;5032993;28;20197;-84
2023/05/14 12:26:11;;;;;;;1.73;1.37;;;17.50;1.00;;;;;;5031905;28;20240;-84
2023/05/14 12:28:41;;;;;;;1.97;1.50;;;17.50;1.00;;;;;;5034111;28;20213;-85
2023/05/14 12:31:07;;;;;;;1.50;1.40;;;17.60;99.90;;;;;;5033569;28;20178;-84
2023/05/14 12:33:33;;;;;;;1.60;1.30;;;17.80;99.90;;;;;;5033865;28;20639;-84
2023/05/14 12:36:00;;;;;;;1.40;1.30;;;18.00;99.90;;;;;;5032758;28;20206;-84
2023/05/14 12:38:27;;;;;;;1.83;1.40;;;18.00;60.20;;;;;;5033897;28;20238;-84
2023/05/14 12:40:52;;;;;;;1.07;1.07;;;17.80;1.00;;;;;;5032462;28;20181;-84
2023/05/14 12:43:18;;;;;;;1.30;1.20;;;17.90;1.00;;;;;;5032557;28;20198;-84
2023/05/14 12:45:44;;;;;;;1.50;1.23;;;18.00;1.00;;;;;;5033782;28;20539;-84
2023/05/14 12:48:10;;;;;;;1.20;1.10;;;18.30;99.90;;;;;;5032563;28;20185;-85
2023/05/14 12:50:35;;;;;;;1.23;1.10;;;18.70;1.00;;;;;;5031838;28;20174;-85